createdAt,value
2023-03-17T00:01:35.054Z,101623.34
2023-03-17T00:04:05.853Z,101613.41
2023-03-17T00:06:36.749Z,101617.44
2023-03-17T00:09:09.191Z,101619.63
2023-03-17T00:11:39.617Z,101615.72
2023-03-17T00:14:10.699Z,101615.97
2023-03-17T00:16:44.457Z,101604.91
2023-03-17T00:19:22.181Z,101601.28
2023-03-17T00:21:53.280Z,101599.09
2023-03-17T00:24:23.905Z,101600.19
2023-03-17T00:26:54.833Z,101586.16
2023-03-17T00:29:27.043Z,101588.00
2023-03-17T00:31:59.937Z,101578.94
2023-03-17T00:34:31.321Z,101588.69
2023-03-17T00:37:03.626Z,101592.47
2023-03-17T00:39:34.868Z,101584.81
2023-03-17T00:42:09.266Z,101582.22
2023-03-17T00:44:42.276Z,101578.72
2023-03-17T00:47:14.754Z,101570.41
2023-03-17T00:49:45.385Z,101568.56
2023-03-17T00:52:15.792Z,101575.31
2023-03-17T00:54:46.837Z,101575.47
2023-03-17T00:57:18.024Z,101574.38
2023-03-17T00:59:48.509Z,101571.28
2023-03-17T01:02:22.686Z,101570.31
2023-03-17T01:05:05.566Z,101573.00
2023-03-17T01:07:38.726Z,101565.97
2023-03-17T01:10:20.734Z,101579.41
2023-03-17T01:12:54.040Z,101563.97
2023-03-17T01:15:25.332Z,101565.56
2023-03-17T01:17:55.786Z,101563.09
2023-03-17T01:20:30.890Z,101552.44
2023-03-17T01:23:03.158Z,101549.03
2023-03-17T01:25:35.318Z,101546.53
2023-03-17T01:28:06.172Z,101544.38
2023-03-17T01:30:41.851Z,101548.91
2023-03-17T01:33:14.740Z,101542.00
2023-03-17T01:35:47.372Z,101537.38
2023-03-17T01:38:17.830Z,101540.91
2023-03-17T01:40:51.665Z,101532.31
2023-03-17T01:43:32.204Z,101530.41
2023-03-17T01:46:36.159Z,101522.72
2023-03-17T01:49:25.451Z,101520.41
2023-03-17T01:51:55.791Z,101510.28
2023-03-17T01:54:48.131Z,101501.06
2023-03-17T01:57:18.500Z,101496.59
2023-03-17T01:59:57.721Z,101494.81
2023-03-17T02:02:36.165Z,101493.97
2023-03-17T02:05:11.215Z,101489.47
2023-03-17T02:07:43.268Z,101486.25
2023-03-17T02:10:16.122Z,101481.16
2023-03-17T02:12:49.066Z,101475.91
2023-03-17T02:15:19.447Z,101466.44
2023-03-17T02:17:50.186Z,101460.47
2023-03-17T02:20:20.491Z,101458.69
2023-03-17T02:22:54.381Z,101444.81
2023-03-17T02:25:27.046Z,101436.31
2023-03-17T02:28:03.424Z,101431.13
2023-03-17T02:30:35.154Z,101428.44
2023-03-17T02:33:06.097Z,101425.25
2023-03-17T02:35:36.966Z,101427.94
2023-03-17T02:38:08.202Z,101413.34
2023-03-17T02:40:38.664Z,101413.28
2023-03-17T02:43:09.167Z,101410.63
2023-03-17T02:45:39.554Z,101397.72
2023-03-17T02:48:10.720Z,101402.06
2023-03-17T02:50:41.384Z,101409.81
2023-03-17T02:53:12.049Z,101398.78
2023-03-17T02:55:42.788Z,101396.13
2023-03-17T02:58:13.238Z,101383.16
2023-03-17T03:00:44.098Z,101372.09
2023-03-17T03:03:14.534Z,101358.06
2023-03-17T03:05:44.927Z,101359.66
2023-03-17T03:08:15.963Z,101351.78
2023-03-17T03:10:46.224Z,101351.91
2023-03-17T03:13:17.301Z,101348.41
2023-03-17T03:15:47.814Z,101345.97
2023-03-17T03:18:18.261Z,101345.88
2023-03-17T03:20:49.622Z,101333.75
2023-03-17T03:23:20.282Z,101325.22
2023-03-17T03:25:50.667Z,101324.22
2023-03-17T03:28:21.552Z,101321.25
2023-03-17T03:30:52.109Z,101322.47
2023-03-17T03:33:23.172Z,101319.75
2023-03-17T03:35:54.423Z,101309.16
2023-03-17T03:38:24.845Z,101312.03
2023-03-17T03:40:56.068Z,101293.78
2023-03-17T03:43:27.296Z,101291.66
2023-03-17T03:45:57.732Z,101285.63
2023-03-17T03:48:28.281Z,101267.72
2023-03-17T03:51:01.032Z,101270.56
2023-03-17T03:53:32.651Z,101255.63
2023-03-17T03:56:03.474Z,101251.13
2023-03-17T03:58:33.919Z,101243.09
2023-03-17T04:01:09.040Z,101234.78
2023-03-17T04:03:40.961Z,101224.88
2023-03-17T04:06:11.456Z,101222.75
2023-03-17T04:08:42.106Z,101218.28
2023-03-17T04:11:12.588Z,101204.66
2023-03-17T04:13:43.115Z,101215.03
2023-03-17T04:16:14.138Z,101209.78
2023-03-17T04:18:44.651Z,101201.13
2023-03-17T04:21:15.378Z,101192.16
2023-03-17T04:23:45.907Z,101187.63
2023-03-17T04:26:18.936Z,101180.88
2023-03-17T04:28:49.854Z,101170.25
2023-03-17T04:31:20.289Z,101162.25
2023-03-17T04:33:50.876Z,101158.41
2023-03-17T04:36:24.687Z,101159.69
2023-03-17T04:38:55.419Z,101164.47
2023-03-17T04:41:26.198Z,101150.50
2023-03-17T04:43:56.516Z,101143.41
2023-03-17T04:46:27.259Z,101145.34
2023-03-17T04:48:57.926Z,101140.22
2023-03-17T04:51:28.769Z,101134.53
2023-03-17T04:53:59.447Z,101123.25
2023-03-17T04:56:31.703Z,101113.72
2023-03-17T04:59:02.802Z,101106.97
2023-03-17T05:01:33.960Z,101106.66
2023-03-17T05:04:04.282Z,101110.28
2023-03-17T05:06:34.835Z,101089.75
2023-03-17T05:09:06.124Z,101094.38
2023-03-17T05:11:37.775Z,101095.41
2023-03-17T05:14:08.163Z,101086.38
2023-03-17T05:16:38.576Z,101082.00
2023-03-17T05:19:09.219Z,101077.97
2023-03-17T05:21:39.504Z,101073.44
2023-03-17T05:24:10.487Z,101066.06
2023-03-17T05:26:42.586Z,101063.44
2023-03-17T05:29:12.934Z,101060.31
2023-03-17T05:31:43.991Z,101055.66
2023-03-17T05:34:14.649Z,101056.28
2023-03-17T05:36:46.139Z,101045.03
2023-03-17T05:39:16.582Z,101036.34
2023-03-17T05:41:47.157Z,101033.34
2023-03-17T05:44:18.014Z,101029.63
2023-03-17T05:46:49.056Z,101023.28
2023-03-17T05:49:20.306Z,101018.81
2023-03-17T05:51:50.746Z,101004.50
2023-03-17T05:54:21.399Z,100998.31
2023-03-17T05:56:52.172Z,101000.22
2023-03-17T05:59:23.773Z,100988.34
2023-03-17T06:01:54.234Z,100989.13
2023-03-17T06:04:24.405Z,100988.63
2023-03-17T06:06:54.734Z,100978.78
2023-03-17T06:09:25.328Z,100974.41
2023-03-17T06:11:55.624Z,100964.69
2023-03-17T06:14:27.123Z,100964.44
2023-03-17T06:16:57.745Z,100949.38
2023-03-17T06:19:28.227Z,100951.84
2023-03-17T06:21:58.697Z,100952.00
2023-03-17T06:24:29.115Z,100953.22
2023-03-17T06:26:59.446Z,100950.22
2023-03-17T06:29:31.643Z,100944.25
2023-03-17T06:32:18.933Z,100939.66
2023-03-17T06:34:50.163Z,100939.16
2023-03-17T06:37:20.897Z,100937.59
2023-03-17T06:39:51.498Z,100937.59
2023-03-17T06:42:22.656Z,100937.59
2023-03-17T06:44:54.200Z,100932.25
2023-03-17T06:47:26.039Z,100928.91
2023-03-17T06:49:59.216Z,100930.31
2023-03-17T06:52:30.188Z,100923.94
2023-03-17T06:55:00.677Z,100921.59
2023-03-17T06:57:31.003Z,100932.44
2023-03-17T07:00:01.446Z,100929.53
2023-03-17T07:02:31.887Z,100938.88
2023-03-17T07:05:02.896Z,100939.66
2023-03-17T07:07:33.322Z,100930.50
2023-03-17T07:10:04.783Z,100931.88
2023-03-17T07:12:35.832Z,100919.88
2023-03-17T07:15:07.412Z,100928.13
2023-03-17T07:17:38.285Z,100926.34
2023-03-17T07:20:09.282Z,100918.59
2023-03-17T07:22:39.646Z,100927.00
2023-03-17T07:25:11.281Z,100925.69
2023-03-17T07:27:41.747Z,100919.06
2023-03-17T07:30:14.390Z,100925.91
2023-03-17T07:32:44.894Z,100925.25
2023-03-17T07:35:17.647Z,100919.72
2023-03-17T07:37:48.883Z,100919.72
2023-03-17T07:40:20.209Z,100917.38
2023-03-17T07:42:51.489Z,100923.34
2023-03-17T07:45:22.061Z,100917.47
2023-03-17T07:47:53.362Z,100920.41
2023-03-17T07:50:24.746Z,100913.56
2023-03-17T07:52:55.050Z,100918.97
2023-03-17T07:55:25.808Z,100911.56
2023-03-17T07:57:56.367Z,100919.91
2023-03-17T08:00:28.133Z,100919.34
2023-03-17T08:03:09.287Z,100917.69
2023-03-17T08:05:41.239Z,100921.78
2023-03-17T08:08:12.306Z,100922.50
2023-03-17T08:10:42.739Z,100927.53
2023-03-17T08:13:13.230Z,100924.81
2023-03-17T08:15:44.369Z,100926.50
2023-03-17T08:18:14.956Z,100931.69
2023-03-17T08:20:46.438Z,100926.63
2023-03-17T08:23:17.095Z,100924.00
2023-03-17T08:25:48.267Z,100919.72
2023-03-17T08:28:19.357Z,100918.38
2023-03-17T08:30:50.921Z,100922.25
2023-03-17T08:33:21.354Z,100918.88
2023-03-17T08:35:52.329Z,100915.78
2023-03-17T08:38:23.293Z,100920.06
2023-03-17T08:40:53.743Z,100923.72
2023-03-17T08:43:25.447Z,100923.22
2023-03-17T08:46:00.702Z,100924.81
2023-03-17T08:48:31.985Z,100927.59
2023-03-17T08:51:02.614Z,100929.47
2023-03-17T08:53:34.010Z,100934.28
2023-03-17T08:56:06.267Z,100935.63
2023-03-17T08:58:41.379Z,100941.53
2023-03-17T09:01:15.193Z,100937.41
2023-03-17T09:03:47.140Z,100934.69
2023-03-17T09:06:18.121Z,100936.56
2023-03-17T09:08:52.397Z,100939.59
2023-03-17T09:11:25.163Z,100935.88
2023-03-17T09:13:57.150Z,100939.19
2023-03-17T09:16:29.980Z,100941.81
2023-03-17T09:19:00.692Z,100940.47
2023-03-17T09:21:31.315Z,100938.84
2023-03-17T09:24:02.636Z,100939.78
2023-03-17T09:26:33.494Z,100944.00
2023-03-17T09:29:04.703Z,100940.88
2023-03-17T09:31:38.086Z,100941.97
2023-03-17T09:34:07.906Z,100940.13
2023-03-17T09:36:39.069Z,100941.88
2023-03-17T09:39:10.324Z,100943.91
2023-03-17T09:41:59.201Z,100937.25
2023-03-17T09:44:50.771Z,100943.16
2023-03-17T09:47:52.382Z,100949.56
2023-03-17T09:50:31.001Z,100953.25
2023-03-17T09:53:04.144Z,100953.16
2023-03-17T09:55:36.714Z,100952.34
2023-03-17T09:58:07.249Z,100950.81
2023-03-17T10:00:37.418Z,100958.00
2023-03-17T10:03:13.596Z,100954.59
2023-03-17T10:05:44.013Z,100956.28
2023-03-17T10:08:29.931Z,100963.47
2023-03-17T10:11:05.215Z,100951.28
2023-03-17T10:13:38.615Z,100954.84
2023-03-17T10:16:13.812Z,100954.09
2023-03-17T10:18:59.320Z,100960.22
2023-03-17T10:21:37.204Z,100968.25
2023-03-17T10:24:08.468Z,100960.31
2023-03-17T10:26:58.898Z,100960.50
2023-03-17T10:29:30.359Z,100971.84
2023-03-17T10:32:01.093Z,100979.03
2023-03-17T10:34:37.751Z,100971.19
2023-03-17T10:37:14.195Z,100975.63
2023-03-17T10:39:51.792Z,100974.78
2023-03-17T10:42:29.320Z,100967.03
2023-03-17T10:45:07.097Z,100971.47
2023-03-17T10:47:41.182Z,100969.66
2023-03-17T10:50:27.639Z,100975.03
2023-03-17T10:53:29.350Z,100972.47
2023-03-17T10:56:11.177Z,100968.25
2023-03-17T10:58:51.591Z,100970.84
2023-03-17T11:01:37.073Z,100967.50
2023-03-17T11:04:38.452Z,100968.34
2023-03-17T11:07:22.841Z,100966.78
2023-03-17T11:09:59.375Z,100967.81
2023-03-17T11:12:54.875Z,100966.94
2023-03-17T11:15:25.622Z,100965.88
2023-03-17T11:18:04.850Z,100970.34
2023-03-17T11:20:52.891Z,100979.09
2023-03-17T11:23:34.397Z,100978.31
2023-03-17T11:26:16.436Z,100972.41
2023-03-17T11:29:10.708Z,100980.22
2023-03-17T11:31:49.533Z,100982.09
2023-03-17T11:34:45.409Z,100975.94
2023-03-17T11:37:34.626Z,100972.34
2023-03-17T11:40:35.532Z,100970.66
2023-03-17T11:43:38.958Z,100977.63
2023-03-17T11:46:21.238Z,100981.25
2023-03-17T11:49:02.206Z,100977.84
2023-03-17T11:51:58.159Z,100974.50
2023-03-17T11:54:48.790Z,100984.19
2023-03-17T11:57:42.200Z,100977.25
2023-03-17T12:00:19.496Z,100980.72
2023-03-17T12:03:32.682Z,100983.34
2023-03-17T12:06:10.110Z,100983.59
2023-03-17T12:08:51.010Z,100979.09
2023-03-17T12:11:30.487Z,100979.25
2023-03-17T12:14:08.325Z,100981.88
2023-03-17T12:17:16.600Z,100983.63
2023-03-17T12:20:10.789Z,100983.03
2023-03-17T12:22:59.471Z,100975.19
2023-03-17T12:26:01.308Z,100976.97
2023-03-17T12:28:40.370Z,100975.28
2023-03-17T12:31:19.884Z,100968.38
2023-03-17T12:34:23.151Z,100971.97
2023-03-17T12:36:55.692Z,100974.59
2023-03-17T12:39:33.564Z,100968.53
2023-03-17T12:42:30.690Z,100965.16
2023-03-17T12:45:39.126Z,100966.84
2023-03-17T12:48:25.152Z,100974.72
2023-03-17T12:51:19.516Z,100967.84
2023-03-17T12:53:52.185Z,100968.66
2023-03-17T12:56:34.361Z,100973.22
2023-03-17T12:59:11.765Z,100967.06
2023-03-17T13:01:48.129Z,100962.84
2023-03-17T13:04:26.467Z,100965.44
2023-03-17T13:07:14.355Z,100966.47
2023-03-17T13:09:50.495Z,100970.00
2023-03-17T13:12:42.076Z,100960.56
2023-03-17T13:15:37.424Z,100967.53
2023-03-17T13:18:20.007Z,100972.00
2023-03-17T13:21:00.792Z,100961.47
2023-03-17T13:23:45.651Z,100957.31
2023-03-17T13:26:21.470Z,100955.56
2023-03-17T13:28:53.639Z,100953.03
2023-03-17T13:31:33.062Z,100957.25
2023-03-17T13:34:19.345Z,100949.41
2023-03-17T13:37:27.880Z,100955.31
2023-03-17T13:40:01.263Z,100955.47
2023-03-17T13:43:03.703Z,100949.50
2023-03-17T13:45:46.105Z,100941.81
2023-03-17T13:48:31.217Z,100940.22
2023-03-17T13:51:15.194Z,100942.88
2023-03-17T13:53:57.994Z,100938.59
2023-03-17T13:56:43.486Z,100944.66
2023-03-17T13:59:14.564Z,100939.53
2023-03-17T14:01:53.919Z,100942.03
2023-03-17T14:04:29.655Z,100941.16
2023-03-17T14:07:08.460Z,100942.13
2023-03-17T14:09:45.160Z,100934.38
2023-03-17T14:12:21.841Z,100941.28
2023-03-17T14:15:08.283Z,100930.94
2023-03-17T14:17:49.341Z,100936.38
2023-03-17T14:20:20.425Z,100929.44
2023-03-17T14:22:57.710Z,100921.50
2023-03-17T14:25:48.464Z,100925.94
2023-03-17T14:28:21.441Z,100922.56
2023-03-17T14:30:58.472Z,100918.25
2023-03-17T14:33:31.368Z,100915.56
2023-03-17T14:36:04.258Z,100913.06
2023-03-17T14:38:37.085Z,100919.94
2023-03-17T14:41:19.150Z,100909.59
2023-03-17T14:43:51.437Z,100906.91
2023-03-17T14:46:40.170Z,100911.28
2023-03-17T14:49:22.634Z,100907.06
2023-03-17T14:52:00.743Z,100903.69
2023-03-17T14:54:36.765Z,100902.00
2023-03-17T14:57:17.223Z,100909.81
2023-03-17T15:00:18.503Z,100907.22
2023-03-17T15:03:00.972Z,100907.22
2023-03-17T15:05:44.818Z,100895.25
2023-03-17T15:08:44.893Z,100893.66
2023-03-17T15:11:25.489Z,100894.31
2023-03-17T15:14:17.880Z,100891.72
2023-03-17T15:16:53.257Z,100890.19
2023-03-17T15:19:46.894Z,100896.31
2023-03-17T15:22:29.009Z,100890.19
2023-03-17T15:25:28.905Z,100891.03
2023-03-17T15:27:59.990Z,100891.19
2023-03-17T15:30:44.384Z,100892.94
2023-03-17T15:33:31.321Z,100893.78
2023-03-17T15:36:02.121Z,100883.28
2023-03-17T15:38:32.545Z,100882.59
2023-03-17T15:41:02.926Z,100881.75
2023-03-17T15:43:33.399Z,100881.81
2023-03-17T15:46:08.412Z,100883.59
2023-03-17T15:48:39.611Z,100883.50
2023-03-17T15:51:12.032Z,100877.53
2023-03-17T15:53:42.481Z,100873.25
2023-03-17T15:56:22.243Z,100878.47
2023-03-17T15:58:53.984Z,100873.31
2023-03-17T16:01:27.307Z,100864.81
2023-03-17T16:03:58.545Z,100878.59
2023-03-17T16:06:29.029Z,100868.16
2023-03-17T16:08:59.685Z,100871.63
2023-03-17T16:11:33.416Z,100867.34
2023-03-17T16:14:04.544Z,100869.09
2023-03-17T16:16:45.029Z,100869.19
2023-03-17T16:19:26.415Z,100879.53
2023-03-17T16:21:57.025Z,100876.13
2023-03-17T16:24:29.012Z,100884.03
2023-03-17T16:26:59.437Z,100885.81
2023-03-17T16:29:29.715Z,100884.97
2023-03-17T16:32:00.257Z,100883.19
2023-03-17T16:34:30.626Z,100891.88
2023-03-17T16:37:01.028Z,100883.50
2023-03-17T16:39:33.677Z,100885.81
2023-03-17T16:42:05.646Z,100883.44
2023-03-17T16:44:36.867Z,100879.88
2023-03-17T16:47:07.660Z,100885.19
2023-03-17T16:49:38.089Z,100886.13
2023-03-17T16:52:08.573Z,100884.38
2023-03-17T16:54:39.008Z,100881.75
2023-03-17T16:57:11.707Z,100877.56
2023-03-17T16:59:42.665Z,100877.56
2023-03-17T17:02:18.368Z,100871.44
2023-03-17T17:04:48.788Z,100860.16
2023-03-17T17:07:19.184Z,100863.78
2023-03-17T17:09:49.609Z,100861.09
2023-03-17T17:12:19.821Z,100868.81
2023-03-17T17:14:50.144Z,100863.78
2023-03-17T17:17:20.353Z,100861.16
2023-03-17T17:19:50.793Z,100858.63
2023-03-17T17:22:21.134Z,100854.31
2023-03-17T17:24:51.453Z,100858.78
2023-03-17T17:27:21.994Z,100853.47
2023-03-17T17:29:52.228Z,100858.84
2023-03-17T17:32:25.288Z,100851.94
2023-03-17T17:34:55.774Z,100850.09
2023-03-17T17:37:26.321Z,100852.78
2023-03-17T17:39:57.046Z,100857.16
2023-03-17T17:42:27.814Z,100854.53
2023-03-17T17:44:58.246Z,100854.63
2023-03-17T17:47:32.312Z,100854.69
2023-03-17T17:50:02.815Z,100855.69
2023-03-17T17:52:33.309Z,100847.03
2023-03-17T17:55:03.790Z,100845.34
2023-03-17T17:57:34.155Z,100839.44
2023-03-17T18:00:07.920Z,100841.81
2023-03-17T18:02:41.181Z,100844.56
2023-03-17T18:05:12.690Z,100840.16
2023-03-17T18:07:43.452Z,100834.16
2023-03-17T18:10:23.980Z,100823.81
2023-03-17T18:12:55.118Z,100826.47
2023-03-17T18:15:27.179Z,100824.66
2023-03-17T18:17:57.921Z,100815.91
2023-03-17T18:20:28.830Z,100827.38
2023-03-17T18:22:59.511Z,100821.25
2023-03-17T18:25:31.292Z,100819.66
2023-03-17T18:28:02.960Z,100822.97
2023-03-17T18:30:36.153Z,100815.19
2023-03-17T18:33:18.408Z,100812.78
2023-03-17T18:35:50.660Z,100814.38
2023-03-17T18:38:21.184Z,100811.94
2023-03-17T18:40:51.825Z,100810.31
2023-03-17T18:43:22.091Z,100818.19
2023-03-17T18:45:52.708Z,100815.59
2023-03-17T18:48:23.321Z,100814.75
2023-03-17T18:50:53.637Z,100822.72
2023-03-17T18:53:24.353Z,100819.13
2023-03-17T18:55:54.736Z,100824.47
2023-03-17T18:58:25.467Z,100825.31
2023-03-17T19:00:59.498Z,100824.38
2023-03-17T19:03:31.245Z,100825.41
2023-03-17T19:06:11.995Z,100825.31
2023-03-17T19:08:42.967Z,100825.41
2023-03-17T19:11:15.667Z,100826.31
2023-03-17T19:13:47.171Z,100828.97
2023-03-17T19:16:18.202Z,100827.22
2023-03-17T19:18:48.575Z,100824.69
2023-03-17T19:21:18.965Z,100834.34
2023-03-17T19:23:49.631Z,100829.19
2023-03-17T19:26:21.711Z,100832.66
2023-03-17T19:28:52.299Z,100836.09
2023-03-17T19:31:22.755Z,100831.03
2023-03-17T19:33:53.269Z,100826.81
2023-03-17T19:36:23.595Z,100826.69
2023-03-17T19:38:53.971Z,100833.66
2023-03-17T19:41:24.250Z,100837.22
2023-03-17T19:43:54.646Z,100835.63
2023-03-17T19:46:25.725Z,100837.41
2023-03-17T19:48:58.115Z,100834.78
2023-03-17T19:51:29.172Z,100832.31
2023-03-17T19:53:59.509Z,100827.94
2023-03-17T19:56:29.970Z,100824.44
2023-03-17T19:59:00.882Z,100834.72
2023-03-17T20:01:33.528Z,100831.34
2023-03-17T20:04:03.858Z,100833.94
2023-03-17T20:06:35.148Z,100834.00
2023-03-17T20:09:05.908Z,100837.53
2023-03-17T20:11:36.373Z,100839.38
2023-03-17T20:14:07.688Z,100837.75
2023-03-17T20:16:39.297Z,100839.44
2023-03-17T20:19:10.679Z,100841.28
2023-03-17T20:21:41.777Z,100835.22
2023-03-17T20:24:16.078Z,100834.31
2023-03-17T20:26:47.432Z,100837.88
2023-03-17T20:29:19.196Z,100844.84
2023-03-17T20:31:49.647Z,100837.00
2023-03-17T20:34:20.109Z,100836.28
2023-03-17T20:36:50.806Z,100847.53
2023-03-17T20:39:23.811Z,100838.88
2023-03-17T20:41:53.956Z,100839.81
2023-03-17T20:44:25.583Z,100832.84
2023-03-17T20:46:56.438Z,100839.09
2023-03-17T20:49:26.826Z,100840.91
2023-03-17T20:51:57.858Z,100839.22
2023-03-17T20:54:28.540Z,100841.91
2023-03-17T20:56:58.946Z,100832.56
2023-03-17T20:59:29.996Z,100838.97
2023-03-17T21:02:00.725Z,100845.16
2023-03-17T21:04:31.694Z,100839.94
2023-03-17T21:07:02.142Z,100852.75
2023-03-17T21:09:32.582Z,100841.84
2023-03-17T21:12:02.799Z,100847.13
2023-03-17T21:14:33.598Z,100847.97
2023-03-17T21:17:05.373Z,100843.75
2023-03-17T21:19:37.557Z,100852.31
2023-03-17T21:22:08.439Z,100848.75
2023-03-17T21:24:41.365Z,100849.63
2023-03-17T21:27:12.811Z,100850.63
2023-03-17T21:29:44.022Z,100848.16
2023-03-17T21:32:14.376Z,100855.00
2023-03-17T21:34:45.499Z,100848.09
2023-03-17T21:37:19.798Z,100854.38
2023-03-17T21:39:50.393Z,100859.78
2023-03-17T21:42:21.140Z,100854.41
2023-03-17T21:44:53.616Z,100860.66
2023-03-17T21:47:24.062Z,100868.47
2023-03-17T21:49:54.272Z,100865.88
2023-03-17T21:52:24.723Z,100868.47
2023-03-17T21:54:56.288Z,100872.72
2023-03-17T21:57:29.075Z,100879.97
2023-03-17T21:59:59.528Z,100877.38
2023-03-17T22:02:30.047Z,100876.44
2023-03-17T22:05:00.949Z,100882.38
2023-03-17T22:07:31.589Z,100889.16
2023-03-17T22:10:02.717Z,100884.97
2023-03-17T22:12:33.071Z,100885.00
2023-03-17T22:15:03.855Z,100883.31
2023-03-17T22:17:34.658Z,100889.44
2023-03-17T22:20:08.189Z,100894.59
2023-03-17T22:22:38.626Z,100905.63
2023-03-17T22:25:09.968Z,100903.22
2023-03-17T22:27:40.444Z,100905.00
2023-03-17T22:30:12.500Z,100906.63
2023-03-17T22:32:43.104Z,100904.16
2023-03-17T22:35:14.725Z,100898.88
2023-03-17T22:37:45.115Z,100911.94
2023-03-17T22:40:16.336Z,100908.38
2023-03-17T22:42:46.650Z,100915.47
2023-03-17T22:45:17.967Z,100906.66
2023-03-17T22:47:48.484Z,100910.28
2023-03-17T22:50:20.270Z,100913.72
2023-03-17T22:52:50.980Z,100911.13
2023-03-17T22:55:21.960Z,100899.88
2023-03-17T22:57:53.102Z,100901.63
2023-03-17T23:00:24.475Z,100917.34
2023-03-17T23:02:55.561Z,100919.00
2023-03-17T23:05:27.220Z,100924.25
2023-03-17T23:07:57.682Z,100910.41
2023-03-17T23:10:28.927Z,100914.69
2023-03-17T23:12:59.300Z,100909.34
2023-03-17T23:15:29.652Z,100912.78
2023-03-17T23:18:00.253Z,100908.50
2023-03-17T23:20:30.833Z,100905.00
2023-03-17T23:23:01.580Z,100907.72
2023-03-17T23:25:32.492Z,100908.44
2023-03-17T23:28:03.142Z,100901.63
2023-03-17T23:30:34.422Z,100909.44
2023-03-17T23:33:06.269Z,100915.47
2023-03-17T23:35:37.425Z,100911.13
2023-03-17T23:38:10.160Z,100912.03
2023-03-17T23:40:41.291Z,100913.72
2023-03-17T23:43:11.784Z,100930.09
2023-03-17T23:45:43.141Z,100928.34
2023-03-17T23:48:14.269Z,100939.41
2023-03-17T23:50:45.679Z,100954.22
2023-03-17T23:53:16.121Z,100947.22
2023-03-17T23:55:46.944Z,100943.09
2023-03-17T23:58:18.116Z,100941.31
